createdAt,value
2023-05-16T00:01:47.752Z,85.34
2023-05-16T00:04:56.380Z,84.72
2023-05-16T00:08:05.274Z,84.72
2023-05-16T00:11:14.869Z,85.03
2023-05-16T00:14:23.327Z,85.03
2023-05-16T00:17:32.191Z,84.72
2023-05-16T00:20:41.612Z,84.83
2023-05-16T00:23:50.115Z,84.83
2023-05-16T00:26:58.226Z,84.63
2023-05-16T00:30:08.267Z,84.31
2023-05-16T00:33:16.499Z,84.11
2023-05-16T00:36:23.570Z,84.22
2023-05-16T00:39:23.941Z,83.81
2023-05-16T00:42:32.732Z,83.91
2023-05-16T00:45:41.891Z,84.01
2023-05-16T00:48:50.417Z,83.97
2023-05-16T00:52:00.154Z,83.87
2023-05-16T00:55:09.310Z,84.01
2023-05-16T00:58:17.624Z,84.22
2023-05-16T01:01:27.297Z,84.22
2023-05-16T01:04:35.771Z,84.17
2023-05-16T01:07:44.702Z,84.42
2023-05-16T01:10:55.061Z,84.72
2023-05-16T01:14:03.395Z,84.89
2023-05-16T01:17:12.222Z,85.10
2023-05-16T01:20:22.503Z,85.10
2023-05-16T01:23:31.598Z,84.89
2023-05-16T01:26:39.985Z,84.99
2023-05-16T01:29:50.219Z,85.30
2023-05-16T01:32:58.968Z,85.50
2023-05-16T01:36:07.206Z,85.47
2023-05-16T01:39:16.154Z,85.47
2023-05-16T01:42:26.247Z,85.47
2023-05-16T01:45:34.110Z,85.26
2023-05-16T01:48:42.981Z,85.30
2023-05-16T01:51:52.763Z,85.71
2023-05-16T01:55:01.722Z,85.91
2023-05-16T01:58:10.746Z,86.02
2023-05-16T02:01:20.996Z,85.61
2023-05-16T02:04:29.302Z,85.91
2023-05-16T02:07:37.821Z,85.81
2023-05-16T02:10:48.574Z,86.22
2023-05-16T02:13:57.369Z,86.12
2023-05-16T02:17:06.192Z,86.02
2023-05-16T02:20:14.927Z,85.91
2023-05-16T02:23:25.616Z,86.02
2023-05-16T02:26:34.431Z,86.22
2023-05-16T02:29:43.311Z,86.22
2023-05-16T02:32:53.510Z,86.73
2023-05-16T02:36:02.152Z,87.04
2023-05-16T02:39:10.661Z,87.14
2023-05-16T02:42:20.414Z,87.14
2023-05-16T02:45:29.276Z,87.04
2023-05-16T02:48:38.059Z,87.14
2023-05-16T02:51:47.787Z,87.35
2023-05-16T02:55:10.054Z,87.35
2023-05-16T02:58:01.860Z,86.73
2023-05-16T03:01:12.228Z,86.32
2023-05-16T03:04:20.642Z,86.57
2023-05-16T03:07:29.751Z,86.63
2023-05-16T03:10:38.165Z,86.12
2023-05-16T03:13:38.842Z,86.53
2023-05-16T03:16:47.343Z,85.91
2023-05-16T03:17:30.879Z,85.81
2023-05-16T03:20:39.607Z,86.02
2023-05-16T03:23:49.360Z,85.71
2023-05-16T03:26:58.033Z,85.97
2023-05-16T03:30:06.382Z,85.67
2023-05-16T03:33:16.602Z,85.77
2023-05-16T03:36:25.851Z,85.61
2023-05-16T03:39:33.733Z,85.91
2023-05-16T03:42:44.668Z,86.32
2023-05-16T03:45:53.501Z,86.38
2023-05-16T03:49:02.111Z,86.59
2023-05-16T03:52:11.709Z,86.83
2023-05-16T03:55:21.267Z,87.14
2023-05-16T03:58:29.938Z,87.45
2023-05-16T04:01:39.307Z,87.76
2023-05-16T04:04:48.743Z,87.55
2023-05-16T04:07:57.514Z,87.96
2023-05-16T04:11:05.776Z,88.47
2023-05-16T04:14:15.551Z,89.29
2023-05-16T04:17:23.600Z,90.92
2023-05-16T04:20:33.057Z,91.78
2023-05-16T04:23:43.370Z,92.40
2023-05-16T04:26:51.740Z,92.60
2023-05-16T04:30:01.155Z,93.12
2023-05-16T04:33:11.913Z,92.50
2023-05-16T04:36:20.738Z,92.15
2023-05-16T04:39:29.058Z,90.92
2023-05-16T04:42:37.844Z,90.66
2023-05-16T04:45:47.628Z,90.62
2023-05-16T04:48:56.395Z,89.59
2023-05-16T04:52:04.603Z,88.78
2023-05-16T04:55:15.496Z,88.26
2023-05-16T04:58:14.341Z,88.17
2023-05-16T05:01:23.698Z,87.96
2023-05-16T05:04:34.081Z,87.82
2023-05-16T05:07:42.411Z,88.02
2023-05-16T05:10:50.789Z,87.77
2023-05-16T05:14:00.289Z,87.16
2023-05-16T05:17:09.046Z,86.41
2023-05-16T05:20:17.739Z,85.28
2023-05-16T05:23:26.275Z,84.98
2023-05-16T05:26:36.468Z,84.67
2023-05-16T05:29:44.847Z,83.81
2023-05-16T05:32:53.789Z,84.01
2023-05-16T05:36:04.231Z,83.26
2023-05-16T05:39:12.569Z,82.18
2023-05-16T05:42:21.810Z,82.04
2023-05-16T05:45:32.384Z,81.53
2023-05-16T05:48:40.202Z,81.81
2023-05-16T05:51:48.950Z,83.69
2023-05-16T05:54:59.200Z,85.47
2023-05-16T05:58:08.032Z,86.83
2023-05-16T06:01:16.857Z,87.70
2023-05-16T06:04:27.150Z,88.31
2023-05-16T06:07:35.808Z,88.10
2023-05-16T06:10:44.296Z,88.31
2023-05-16T06:13:53.458Z,87.24
2023-05-16T06:17:03.815Z,86.83
2023-05-16T06:20:12.271Z,85.91
2023-05-16T06:23:21.505Z,85.71
2023-05-16T06:26:31.864Z,84.03
2023-05-16T06:29:40.381Z,83.52
2023-05-16T06:32:49.028Z,82.60
2023-05-16T06:35:59.142Z,82.50
2023-05-16T06:39:07.214Z,81.38
2023-05-16T06:42:16.082Z,81.13
2023-05-16T06:45:26.043Z,80.89
2023-05-16T06:48:34.088Z,79.43
2023-05-16T06:51:43.660Z,78.37
2023-05-16T06:54:53.092Z,75.82
2023-05-16T06:58:02.366Z,76.67
2023-05-16T07:01:11.213Z,76.06
2023-05-16T07:04:19.570Z,76.36
2023-05-16T07:07:29.766Z,75.61
2023-05-16T07:10:39.561Z,72.99
2023-05-16T07:13:48.634Z,69.83
2023-05-16T07:16:58.131Z,68.84
2023-05-16T07:20:07.165Z,68.51
2023-05-16T07:23:15.871Z,67.69
2023-05-16T07:26:26.407Z,67.96
2023-05-16T07:29:34.248Z,67.49
2023-05-16T07:32:42.776Z,66.00
2023-05-16T07:36:00.872Z,65.53
2023-05-16T07:38:58.179Z,65.56
2023-05-16T07:42:07.491Z,65.36
2023-05-16T07:45:15.752Z,64.84
2023-05-16T07:48:25.998Z,64.34
2023-05-16T07:51:34.281Z,63.22
2023-05-16T07:54:42.648Z,62.98
2023-05-16T07:57:53.341Z,62.14
2023-05-16T08:01:01.553Z,61.20
2023-05-16T08:04:10.235Z,59.64
2023-05-16T08:07:20.150Z,60.41
2023-05-16T08:10:28.842Z,62.61
2023-05-16T08:13:36.769Z,63.83
2023-05-16T08:16:47.179Z,65.05
2023-05-16T08:19:55.953Z,64.23
2023-05-16T08:23:04.818Z,65.56
2023-05-16T08:26:13.804Z,63.80
2023-05-16T08:29:24.767Z,64.11
2023-05-16T08:32:32.751Z,64.20
2023-05-16T08:35:42.655Z,62.96
2023-05-16T08:38:42.464Z,61.83
2023-05-16T08:41:51.099Z,60.41
2023-05-16T08:44:59.738Z,61.17
2023-05-16T08:48:10.640Z,59.52
2023-05-16T08:51:19.249Z,59.52
2023-05-16T08:54:28.150Z,58.58
2023-05-16T08:57:37.881Z,57.59
2023-05-16T09:00:46.268Z,58.94
2023-05-16T09:03:54.759Z,59.34
2023-05-16T09:07:04.416Z,58.63
2023-05-16T09:10:14.318Z,57.08
2023-05-16T09:13:23.387Z,57.08
2023-05-16T09:16:32.345Z,57.41
2023-05-16T09:19:41.736Z,55.88
2023-05-16T09:22:50.412Z,56.93
2023-05-16T09:25:59.964Z,57.10
2023-05-16T09:29:09.329Z,54.46
2023-05-16T09:32:18.201Z,55.78
2023-05-16T09:35:43.218Z,55.12
2023-05-16T09:38:33.525Z,53.91
2023-05-16T09:42:20.201Z,51.98
2023-05-16T09:45:29.671Z,54.13
2023-05-16T09:48:39.070Z,54.21
2023-05-16T09:51:48.280Z,53.27
2023-05-16T09:54:56.781Z,53.67
2023-05-16T09:58:07.285Z,51.42
2023-05-16T10:01:15.676Z,52.58
2023-05-16T10:04:24.605Z,50.43
2023-05-16T10:07:32.708Z,51.24
2023-05-16T10:10:42.219Z,52.28
2023-05-16T10:13:51.802Z,50.43
2023-05-16T10:17:00.016Z,49.19
2023-05-16T10:20:10.201Z,48.28
2023-05-16T10:23:18.917Z,48.82
2023-05-16T10:26:26.837Z,50.13
2023-05-16T10:29:46.434Z,49.44
2023-05-16T10:32:42.992Z,50.20
2023-05-16T10:35:51.692Z,50.84
2023-05-16T10:39:02.239Z,50.68
2023-05-16T10:42:11.466Z,49.98
2023-05-16T10:45:19.672Z,49.90
2023-05-16T10:48:28.242Z,48.58
2023-05-16T10:51:38.333Z,50.08
2023-05-16T10:54:46.112Z,49.65
2023-05-16T10:57:55.600Z,49.98
2023-05-16T11:01:05.291Z,49.77
2023-05-16T11:04:14.513Z,49.37
2023-05-16T11:07:22.988Z,49.47
2023-05-16T11:10:33.014Z,47.09
2023-05-16T11:13:41.487Z,46.59
2023-05-16T11:16:50.555Z,46.54
2023-05-16T11:20:17.230Z,44.44
2023-05-16T11:23:25.324Z,44.44
2023-05-16T11:26:34.202Z,44.82
2023-05-16T11:29:43.785Z,42.98
2023-05-16T11:32:52.964Z,43.10
2023-05-16T11:36:11.471Z,43.67
2023-05-16T11:39:07.223Z,43.06
2023-05-16T11:42:16.878Z,43.52
2023-05-16T11:45:25.708Z,43.89
2023-05-16T11:48:36.517Z,41.69
2023-05-16T11:51:35.717Z,45.02
2023-05-16T11:54:43.949Z,40.17
2023-05-16T11:57:52.750Z,42.33
2023-05-16T12:01:01.920Z,44.27
2023-05-16T12:04:10.893Z,44.60
2023-05-16T12:07:20.379Z,45.31
2023-05-16T12:10:20.977Z,44.88
2023-05-16T12:13:29.674Z,44.58
2023-05-16T12:16:37.837Z,45.16
2023-05-16T12:19:46.126Z,43.75
2023-05-16T12:22:55.397Z,43.04
2023-05-16T12:26:04.394Z,40.72
2023-05-16T12:29:12.683Z,41.55
2023-05-16T12:32:22.941Z,42.07
2023-05-16T12:35:31.112Z,43.61
2023-05-16T12:38:39.288Z,43.59
2023-05-16T12:41:49.842Z,41.42
2023-05-16T12:43:48.594Z,42.23
2023-05-16T12:46:57.121Z,44.43
2023-05-16T12:50:05.607Z,43.24
2023-05-16T12:53:15.684Z,44.52
2023-05-16T12:56:23.578Z,45.96
2023-05-16T12:59:32.266Z,45.03
2023-05-16T13:02:41.940Z,45.23
2023-05-16T13:05:50.536Z,46.54
2023-05-16T13:08:58.975Z,45.81
2023-05-16T13:12:09.280Z,46.04
2023-05-16T13:15:17.581Z,45.04
2023-05-16T13:18:25.928Z,45.25
2023-05-16T13:21:35.817Z,44.42
2023-05-16T13:24:44.812Z,44.09
2023-05-16T13:27:53.525Z,43.63
2023-05-16T13:31:02.197Z,42.32
2023-05-16T13:34:12.008Z,42.82
2023-05-16T13:37:21.081Z,42.07
2023-05-16T13:40:29.917Z,40.74
2023-05-16T13:43:39.722Z,40.03
2023-05-16T13:46:49.195Z,40.74
2023-05-16T13:50:14.287Z,41.97
2023-05-16T13:53:23.650Z,42.27
2023-05-16T13:56:32.863Z,45.22
2023-05-16T14:02:44.620Z,43.60
2023-05-16T14:05:53.787Z,43.59
2023-05-16T14:09:02.437Z,43.28
2023-05-16T14:12:12.499Z,42.46
2023-05-16T14:15:21.120Z,40.25
2023-05-16T14:18:29.843Z,40.92
2023-05-16T14:21:38.044Z,43.55
2023-05-16T14:24:48.353Z,43.43
2023-05-16T14:27:57.155Z,42.32
2023-05-16T14:31:05.569Z,41.81
2023-05-16T14:34:15.756Z,41.50
2023-05-16T14:37:24.738Z,43.18
2023-05-16T14:40:33.767Z,41.13
2023-05-16T14:43:44.555Z,39.75
2023-05-16T14:46:52.970Z,40.78
2023-05-16T14:50:01.861Z,39.45
2023-05-16T14:53:11.626Z,39.65
2023-05-16T14:56:20.728Z,40.76
2023-05-16T14:59:29.078Z,40.90
2023-05-16T15:02:37.212Z,41.14
2023-05-16T15:05:47.911Z,41.91
2023-05-16T15:08:56.217Z,42.19
2023-05-16T15:12:05.508Z,42.15
2023-05-16T15:15:16.503Z,41.81
2023-05-16T15:18:24.844Z,40.25
2023-05-16T15:21:33.118Z,40.86
2023-05-16T15:24:43.632Z,40.58
2023-05-16T15:27:51.805Z,41.32
2023-05-16T15:31:01.163Z,43.08
2023-05-16T15:34:10.868Z,43.16
2023-05-16T15:37:19.462Z,42.11
2023-05-16T15:40:28.733Z,41.89
2023-05-16T15:43:38.404Z,41.08
2023-05-16T15:46:46.590Z,42.43
2023-05-16T15:49:55.238Z,42.54
2023-05-16T15:53:03.901Z,43.34
2023-05-16T15:56:13.360Z,42.54
2023-05-16T15:59:22.100Z,42.96
2023-05-16T16:02:30.955Z,43.69
2023-05-16T16:05:40.539Z,43.10
2023-05-16T16:08:49.329Z,43.81
2023-05-16T16:11:57.844Z,44.62
2023-05-16T16:15:07.295Z,44.72
2023-05-16T16:18:15.604Z,44.29
2023-05-16T16:21:25.048Z,44.54
2023-05-16T16:24:35.715Z,43.02
2023-05-16T16:27:44.579Z,43.32
2023-05-16T16:30:53.040Z,43.43
2023-05-16T16:34:01.480Z,42.60
2023-05-16T16:37:12.321Z,41.58
2023-05-16T16:40:21.181Z,41.52
2023-05-16T16:43:29.347Z,42.74
2023-05-16T16:46:29.997Z,43.79
2023-05-16T16:49:38.756Z,44.81
2023-05-16T16:52:47.200Z,45.72
2023-05-16T16:55:57.223Z,46.12
2023-05-16T16:59:06.316Z,45.82
2023-05-16T17:02:15.170Z,46.63
2023-05-16T17:05:25.560Z,47.36
2023-05-16T17:08:34.303Z,47.36
2023-05-16T17:11:42.517Z,47.36
2023-05-16T17:14:52.258Z,47.77
2023-05-16T17:18:02.905Z,47.49
2023-05-16T17:21:11.288Z,47.08
2023-05-16T17:24:19.640Z,47.51
2023-05-16T17:27:30.658Z,49.05
2023-05-16T17:30:38.666Z,49.46
2023-05-16T17:33:48.230Z,50.29
2023-05-16T17:36:58.845Z,50.98
2023-05-16T17:40:09.176Z,50.88
2023-05-16T17:43:18.435Z,51.72
2023-05-16T17:46:18.178Z,51.62
2023-05-16T17:49:26.684Z,52.45
2023-05-16T17:52:35.971Z,51.64
2023-05-16T17:55:46.396Z,52.68
2023-05-16T17:58:55.235Z,52.78
2023-05-16T18:02:04.302Z,52.91
2023-05-16T18:05:12.477Z,53.52
2023-05-16T18:08:23.036Z,53.22
2023-05-16T18:11:31.823Z,53.63
2023-05-16T18:14:43.037Z,53.42
2023-05-16T18:17:44.102Z,53.83
2023-05-16T18:20:52.911Z,53.85
2023-05-16T18:24:01.012Z,53.85
2023-05-16T18:27:11.527Z,54.39
2023-05-16T18:30:20.016Z,54.59
2023-05-16T18:33:28.925Z,55.30
2023-05-16T18:36:39.055Z,55.13
2023-05-16T18:39:47.805Z,55.33
2023-05-16T18:42:58.660Z,55.74
2023-05-16T18:46:07.749Z,56.15
2023-05-16T18:49:18.080Z,56.37
2023-05-16T18:52:27.288Z,57.09
2023-05-16T18:55:35.390Z,57.21
2023-05-16T18:58:46.256Z,57.73
2023-05-16T19:01:55.191Z,57.62
2023-05-16T19:05:03.683Z,57.32
2023-05-16T19:08:14.224Z,57.34
2023-05-16T19:11:22.585Z,57.86
2023-05-16T19:14:31.415Z,57.86
2023-05-16T19:17:41.400Z,58.47
2023-05-16T19:20:50.277Z,59.11
2023-05-16T19:23:59.029Z,59.21
2023-05-16T19:27:09.639Z,60.36
2023-05-16T19:30:17.983Z,60.05
2023-05-16T19:33:25.826Z,60.46
2023-05-16T19:36:34.467Z,60.97
2023-05-16T19:39:44.040Z,62.81
2023-05-16T19:42:52.987Z,62.63
2023-05-16T19:46:01.489Z,63.35
2023-05-16T19:49:11.876Z,64.07
2023-05-16T19:52:20.438Z,64.40
2023-05-16T19:55:29.049Z,64.61
2023-05-16T19:58:38.957Z,64.71
2023-05-16T20:01:48.264Z,64.81
2023-05-16T20:04:56.698Z,65.12
2023-05-16T20:08:06.787Z,65.53
2023-05-16T20:11:15.251Z,65.25
2023-05-16T20:14:23.961Z,65.97
2023-05-16T20:17:32.700Z,66.48
2023-05-16T20:20:42.934Z,66.69
2023-05-16T20:23:50.734Z,67.02
2023-05-16T20:26:59.455Z,66.92
2023-05-16T20:30:09.182Z,67.64
2023-05-16T20:33:18.035Z,67.74
2023-05-16T20:36:27.339Z,68.15
2023-05-16T20:39:36.712Z,68.66
2023-05-16T20:42:45.928Z,69.10
2023-05-16T20:45:54.744Z,69.61
2023-05-16T20:49:04.051Z,70.16
2023-05-16T20:52:13.199Z,70.47
2023-05-16T20:55:22.101Z,70.47
2023-05-16T20:58:31.923Z,70.87
2023-05-16T21:01:40.948Z,71.39
2023-05-16T21:04:50.005Z,71.90
2023-05-16T21:07:58.870Z,72.03
2023-05-16T21:11:08.869Z,72.34
2023-05-16T21:14:17.109Z,72.44
2023-05-16T21:17:25.998Z,72.75
2023-05-16T21:20:36.751Z,73.06
2023-05-16T21:23:45.618Z,73.06
2023-05-16T21:26:54.452Z,73.16
2023-05-16T21:30:03.792Z,73.40
2023-05-16T21:33:12.874Z,73.61
2023-05-16T21:36:21.347Z,74.32
2023-05-16T21:39:31.076Z,74.77
2023-05-16T21:42:39.490Z,75.08
2023-05-16T21:45:48.287Z,75.49
2023-05-16T21:48:56.721Z,75.49
2023-05-16T21:52:07.625Z,75.90
2023-05-16T21:55:16.646Z,76.10
2023-05-16T21:58:25.773Z,76.31
2023-05-16T22:01:25.650Z,76.65
2023-05-16T22:04:34.679Z,76.86
2023-05-16T22:07:43.277Z,77.06
2023-05-16T22:10:52.651Z,77.37
2023-05-16T22:14:01.166Z,77.47
2023-05-16T22:17:09.984Z,77.68
2023-05-16T22:20:20.225Z,77.88
2023-05-16T22:23:28.989Z,78.09
2023-05-16T22:26:37.312Z,78.39
2023-05-16T22:29:46.265Z,78.33
2023-05-16T22:32:56.679Z,78.74
2023-05-16T22:36:05.696Z,78.94
2023-05-16T22:39:14.673Z,79.05
2023-05-16T22:42:23.988Z,79.60
2023-05-16T22:45:33.406Z,80.21
2023-05-16T22:48:42.175Z,80.52
2023-05-16T22:51:51.968Z,80.42
2023-05-16T22:55:00.854Z,80.87
2023-05-16T22:58:09.356Z,81.28
2023-05-16T23:01:19.637Z,81.48
2023-05-16T23:04:29.064Z,81.79
2023-05-16T23:07:37.877Z,82.41
2023-05-16T23:10:48.516Z,82.76
2023-05-16T23:13:56.987Z,82.76
2023-05-16T23:17:05.976Z,82.86
2023-05-16T23:20:15.086Z,83.06
2023-05-16T23:23:24.933Z,83.06
2023-05-16T23:26:33.772Z,83.27
2023-05-16T23:29:43.131Z,83.27
2023-05-16T23:32:52.644Z,83.37
2023-05-16T23:36:01.925Z,83.48
2023-05-16T23:39:09.860Z,83.51
2023-05-16T23:42:20.904Z,83.83
2023-05-16T23:45:29.979Z,83.83
2023-05-16T23:48:38.879Z,83.72
2023-05-16T23:51:57.635Z,84.44
2023-05-16T23:54:54.897Z,84.54
2023-05-16T23:58:03.539Z,84.75
